createdAt,value
2023-05-25T00:01:21.550Z,83.27
2023-05-25T00:03:49.697Z,83.10
2023-05-25T00:06:18.406Z,82.32
2023-05-25T00:08:46.681Z,81.41
2023-05-25T00:11:14.739Z,80.75
2023-05-25T00:13:44.205Z,80.30
2023-05-25T00:16:12.304Z,84.78
2023-05-25T00:18:40.399Z,83.58
2023-05-25T00:21:08.494Z,80.67
2023-05-25T00:23:36.854Z,80.96
2023-05-25T00:26:05.558Z,83.63
2023-05-25T00:28:33.763Z,84.46
2023-05-25T00:31:03.264Z,84.77
2023-05-25T00:33:31.576Z,83.18
2023-05-25T00:36:00.422Z,83.50
2023-05-25T00:38:28.654Z,82.42
2023-05-25T00:40:57.516Z,80.57
2023-05-25T00:43:25.645Z,80.68
2023-05-25T00:45:55.135Z,78.60
2023-05-25T00:48:26.703Z,79.19
2023-05-25T00:50:58.087Z,79.81
2023-05-25T00:53:27.852Z,80.32
2023-05-25T00:56:03.514Z,79.84
2023-05-25T00:58:35.922Z,78.95
2023-05-25T01:01:06.495Z,79.63
2023-05-25T01:03:38.431Z,78.54
2023-05-25T01:06:13.269Z,80.94
2023-05-25T01:08:45.536Z,80.60
2023-05-25T01:11:16.410Z,79.29
2023-05-25T01:13:46.187Z,79.16
2023-05-25T01:16:15.326Z,79.12
2023-05-25T01:18:44.905Z,79.12
2023-05-25T01:21:22.144Z,78.79
2023-05-25T01:23:56.497Z,79.60
2023-05-25T01:26:28.343Z,80.09
2023-05-25T01:28:59.448Z,80.58
2023-05-25T01:31:27.902Z,80.22
2023-05-25T01:33:57.691Z,78.69
2023-05-25T01:36:27.187Z,79.61
2023-05-25T01:38:55.718Z,79.10
2023-05-25T01:41:23.829Z,78.20
2023-05-25T01:43:52.425Z,78.34
2023-05-25T01:46:28.541Z,79.23
2023-05-25T01:49:04.179Z,79.69
2023-05-25T01:51:45.087Z,82.58
2023-05-25T01:54:20.264Z,84.29
2023-05-25T01:56:52.123Z,85.37
2023-05-25T01:59:22.800Z,83.63
2023-05-25T02:01:53.866Z,83.86
2023-05-25T02:04:23.218Z,82.66
2023-05-25T02:06:54.067Z,82.03
2023-05-25T02:09:22.151Z,80.75
2023-05-25T02:11:52.098Z,80.25
2023-05-25T02:14:20.233Z,82.08
2023-05-25T02:16:48.462Z,81.05
2023-05-25T02:19:16.577Z,82.21
2023-05-25T02:21:45.176Z,82.41
2023-05-25T02:24:14.838Z,82.82
2023-05-25T02:26:42.876Z,80.27
2023-05-25T02:29:11.761Z,84.67
2023-05-25T02:31:39.967Z,82.58
2023-05-25T02:34:08.103Z,84.87
2023-05-25T02:36:36.413Z,82.32
2023-05-25T02:39:06.254Z,83.60
2023-05-25T02:41:35.676Z,84.89
2023-05-25T02:44:03.740Z,86.64
2023-05-25T02:46:33.797Z,86.65
2023-05-25T02:49:02.260Z,87.48
2023-05-25T02:51:30.811Z,87.40
2023-05-25T02:54:01.354Z,90.14
2023-05-25T02:56:29.594Z,85.35
2023-05-25T02:59:00.389Z,84.80
2023-05-25T03:01:32.721Z,85.81
2023-05-25T03:04:01.909Z,86.67
2023-05-25T03:06:36.704Z,85.63
2023-05-25T03:09:15.149Z,88.26
2023-05-25T03:11:43.495Z,87.57
2023-05-25T03:14:17.194Z,87.86
2023-05-25T03:16:53.708Z,85.58
2023-05-25T03:19:22.642Z,89.38
2023-05-25T03:21:50.680Z,85.65
2023-05-25T03:24:20.329Z,85.16
2023-05-25T03:26:48.404Z,86.70
2023-05-25T03:29:18.836Z,85.72
2023-05-25T03:31:47.348Z,84.79
2023-05-25T03:34:16.144Z,83.38
2023-05-25T03:36:46.010Z,82.39
2023-05-25T03:39:15.317Z,83.35
2023-05-25T03:41:44.311Z,82.64
2023-05-25T03:44:12.804Z,81.14
2023-05-25T03:46:43.354Z,80.63
2023-05-25T03:49:14.182Z,83.26
2023-05-25T03:51:42.959Z,82.54
2023-05-25T03:54:11.726Z,82.98
2023-05-25T03:56:39.873Z,83.84
2023-05-25T03:59:08.079Z,83.67
2023-05-25T04:01:39.094Z,82.60
2023-05-25T04:04:08.866Z,82.71
2023-05-25T04:06:38.341Z,82.26
2023-05-25T04:09:07.903Z,84.38
2023-05-25T04:11:36.026Z,82.83
2023-05-25T04:14:04.189Z,82.01
2023-05-25T04:16:35.892Z,80.66
2023-05-25T04:19:05.144Z,83.02
2023-05-25T04:21:34.877Z,85.65
2023-05-25T04:24:03.558Z,84.77
2023-05-25T04:26:32.083Z,87.74
2023-05-25T04:29:02.470Z,87.74
2023-05-25T04:31:49.801Z,84.47
2023-05-25T04:34:34.239Z,84.40
2023-05-25T04:37:09.232Z,85.58
2023-05-25T04:39:38.332Z,87.32
2023-05-25T04:42:06.860Z,89.79
2023-05-25T04:44:36.292Z,87.33
2023-05-25T04:47:07.355Z,86.79
2023-05-25T04:49:36.152Z,83.46
2023-05-25T04:52:04.985Z,83.83
2023-05-25T04:54:34.395Z,84.95
2023-05-25T04:57:04.208Z,82.14
2023-05-25T04:59:33.174Z,85.42
2023-05-25T05:02:02.096Z,83.80
2023-05-25T05:04:30.577Z,81.12
2023-05-25T05:07:00.048Z,82.25
2023-05-25T05:09:30.699Z,83.36
2023-05-25T05:12:03.103Z,81.66
2023-05-25T05:14:36.481Z,82.13
2023-05-25T05:17:04.701Z,80.78
2023-05-25T05:19:33.849Z,83.95
2023-05-25T05:22:02.037Z,82.62
2023-05-25T05:24:30.276Z,81.11
2023-05-25T05:26:59.736Z,80.04
2023-05-25T05:29:34.339Z,79.21
2023-05-25T05:32:02.633Z,80.03
2023-05-25T05:34:31.705Z,81.16
2023-05-25T05:37:03.929Z,79.65
2023-05-25T05:39:32.095Z,77.99
2023-05-25T05:42:00.431Z,78.18
2023-05-25T05:44:29.440Z,82.40
2023-05-25T05:47:01.824Z,85.58
2023-05-25T05:49:32.018Z,85.68
2023-05-25T05:52:01.984Z,86.73
2023-05-25T05:54:30.179Z,88.32
2023-05-25T05:57:02.495Z,85.32
2023-05-25T05:59:30.594Z,82.71
2023-05-25T06:02:00.630Z,83.10
2023-05-25T06:04:29.236Z,83.76
2023-05-25T06:06:59.212Z,84.65
2023-05-25T06:09:27.621Z,84.97
2023-05-25T06:11:59.783Z,84.72
2023-05-25T06:14:28.875Z,83.93
2023-05-25T06:17:02.857Z,86.12
2023-05-25T06:19:31.203Z,85.32
2023-05-25T06:21:59.334Z,81.10
2023-05-25T06:24:27.473Z,80.37
2023-05-25T06:26:55.623Z,80.81
2023-05-25T06:29:23.813Z,81.72
2023-05-25T06:31:51.955Z,80.05
2023-05-25T06:34:21.597Z,81.79
2023-05-25T06:36:49.768Z,84.05
2023-05-25T06:39:17.923Z,81.02
2023-05-25T06:41:46.064Z,85.93
2023-05-25T06:44:19.572Z,81.71
2023-05-25T06:46:48.835Z,79.64
2023-05-25T06:49:17.414Z,80.62
2023-05-25T06:51:47.048Z,83.87
2023-05-25T06:54:15.494Z,80.66
2023-05-25T06:56:43.750Z,80.39
2023-05-25T06:59:11.872Z,80.96
2023-05-25T07:01:40.039Z,79.24
2023-05-25T07:04:08.143Z,83.21
2023-05-25T07:06:36.610Z,82.12
2023-05-25T07:09:06.156Z,79.70
2023-05-25T07:11:34.475Z,84.87
2023-05-25T07:14:02.623Z,81.39
2023-05-25T07:16:32.141Z,80.98
2023-05-25T07:19:00.627Z,82.27
2023-05-25T07:21:28.908Z,78.65
2023-05-25T07:23:57.057Z,77.29
2023-05-25T07:26:28.056Z,76.83
2023-05-25T07:28:56.132Z,76.98
2023-05-25T07:31:32.841Z,75.02
2023-05-25T07:34:08.537Z,76.14
2023-05-25T07:36:44.107Z,79.67
2023-05-25T07:39:12.911Z,79.64
2023-05-25T07:41:42.289Z,80.50
2023-05-25T07:44:10.327Z,79.44
2023-05-25T07:46:38.460Z,78.30
2023-05-25T07:49:12.016Z,78.83
2023-05-25T07:51:40.473Z,78.92
2023-05-25T07:54:08.557Z,81.18
2023-05-25T07:56:36.717Z,84.34
2023-05-25T07:59:06.202Z,82.09
2023-05-25T08:01:34.400Z,82.82
2023-05-25T08:04:02.711Z,81.37
2023-05-25T08:06:32.540Z,79.13
2023-05-25T08:09:00.586Z,82.26
2023-05-25T08:11:28.840Z,77.93
2023-05-25T08:13:56.926Z,77.49
2023-05-25T08:16:26.935Z,78.68
2023-05-25T08:18:55.020Z,79.44
2023-05-25T08:21:23.141Z,79.89
2023-05-25T08:23:51.714Z,80.37
2023-05-25T08:26:34.716Z,78.93
2023-05-25T08:29:06.570Z,79.30
2023-05-25T08:31:37.456Z,78.36
2023-05-25T08:34:05.596Z,79.54
2023-05-25T08:36:35.972Z,80.81
2023-05-25T08:39:04.815Z,77.96
2023-05-25T08:41:34.419Z,75.49
2023-05-25T08:44:06.390Z,76.79
2023-05-25T08:46:36.930Z,76.70
2023-05-25T08:49:10.067Z,75.30
2023-05-25T08:51:39.308Z,80.33
2023-05-25T08:54:10.334Z,82.81
2023-05-25T08:56:47.851Z,81.79
2023-05-25T08:59:24.951Z,78.18
2023-05-25T09:02:08.984Z,78.24
2023-05-25T09:04:37.456Z,76.87
2023-05-25T09:07:10.851Z,76.77
2023-05-25T09:09:41.236Z,76.81
2023-05-25T09:12:10.328Z,76.90
2023-05-25T09:14:45.521Z,74.07
2023-05-25T09:17:16.177Z,77.28
2023-05-25T09:19:44.617Z,81.62
2023-05-25T09:22:16.542Z,79.59
2023-05-25T09:24:46.073Z,80.31
2023-05-25T09:27:17.605Z,82.70
2023-05-25T09:29:46.451Z,79.44
2023-05-25T09:32:17.566Z,80.74
2023-05-25T09:34:45.900Z,79.72
2023-05-25T09:37:16.823Z,80.63
2023-05-25T09:39:47.956Z,79.66
2023-05-25T09:42:16.394Z,80.72
2023-05-25T09:44:44.858Z,78.63
2023-05-25T09:47:14.094Z,80.34
2023-05-25T09:49:44.625Z,81.43
2023-05-25T09:52:13.826Z,80.66
2023-05-25T09:54:45.446Z,80.51
2023-05-25T09:57:13.536Z,78.82
2023-05-25T09:59:42.702Z,76.38
2023-05-25T10:02:10.825Z,75.82
2023-05-25T10:04:39.008Z,77.49
2023-05-25T10:07:09.923Z,83.10
2023-05-25T10:09:42.496Z,81.50
2023-05-25T10:12:11.363Z,76.93
2023-05-25T10:14:39.846Z,77.90
2023-05-25T10:17:09.452Z,76.84
2023-05-25T10:19:42.066Z,74.69
2023-05-25T10:22:17.325Z,76.19
2023-05-25T10:24:54.975Z,75.08
2023-05-25T10:27:27.593Z,75.58
2023-05-25T10:29:58.036Z,79.47
2023-05-25T10:32:27.407Z,76.61
2023-05-25T10:34:58.414Z,80.04
2023-05-25T10:37:29.225Z,77.32
2023-05-25T10:39:58.963Z,79.01
2023-05-25T10:42:29.683Z,76.79
2023-05-25T10:44:58.873Z,76.96
2023-05-25T10:47:27.463Z,76.47
2023-05-25T10:49:58.031Z,74.40
2023-05-25T10:52:30.949Z,76.12
2023-05-25T10:55:01.999Z,77.89
2023-05-25T10:57:30.614Z,80.60
2023-05-25T11:00:06.438Z,78.79
2023-05-25T11:02:51.464Z,76.60
2023-05-25T11:05:34.433Z,76.58
2023-05-25T11:08:06.463Z,73.83
2023-05-25T11:10:54.186Z,74.10
2023-05-25T11:13:41.380Z,77.09
2023-05-25T11:16:24.610Z,73.27
2023-05-25T11:18:55.908Z,71.89
2023-05-25T11:21:40.905Z,72.57
2023-05-25T11:24:15.334Z,72.66
2023-05-25T11:26:56.011Z,72.98
2023-05-25T11:29:25.930Z,72.29
2023-05-25T11:31:56.107Z,71.92
2023-05-25T11:34:29.019Z,76.48
2023-05-25T11:37:01.757Z,77.69
2023-05-25T11:39:32.279Z,80.17
2023-05-25T11:42:05.094Z,76.88
2023-05-25T11:44:34.617Z,79.02
2023-05-25T11:47:06.108Z,76.90
2023-05-25T11:49:34.227Z,75.62
2023-05-25T11:52:07.179Z,74.30
2023-05-25T11:54:37.113Z,76.37
2023-05-25T11:57:06.509Z,75.74
2023-05-25T11:59:34.678Z,74.28
2023-05-25T12:02:04.153Z,75.66
2023-05-25T12:04:34.169Z,76.80
2023-05-25T12:07:05.839Z,75.62
2023-05-25T12:09:34.322Z,72.17
2023-05-25T12:12:05.131Z,71.82
2023-05-25T12:14:36.200Z,71.35
2023-05-25T12:17:04.700Z,74.08
2023-05-25T12:19:33.333Z,77.17
2023-05-25T12:22:01.502Z,77.03
2023-05-25T12:24:29.605Z,78.10
2023-05-25T12:26:59.314Z,75.58
2023-05-25T12:29:29.507Z,75.62
2023-05-25T12:32:04.538Z,74.47
2023-05-25T12:34:32.768Z,74.20
2023-05-25T12:37:01.641Z,75.55
2023-05-25T12:39:39.373Z,73.57
2023-05-25T12:42:15.364Z,74.90
2023-05-25T12:44:46.666Z,75.21
2023-05-25T12:47:16.833Z,76.72
2023-05-25T12:49:46.314Z,75.83
2023-05-25T12:52:33.298Z,75.24
2023-05-25T12:55:19.762Z,76.19
2023-05-25T12:57:52.549Z,76.76
2023-05-25T13:00:23.807Z,74.31
2023-05-25T13:02:52.406Z,74.92
2023-05-25T13:05:24.825Z,74.95
2023-05-25T13:07:53.446Z,74.69
2023-05-25T13:10:21.733Z,74.95
2023-05-25T13:12:51.890Z,74.82
2023-05-25T13:15:22.909Z,76.02
2023-05-25T13:17:52.152Z,77.58
2023-05-25T13:20:23.184Z,77.31
2023-05-25T13:22:52.760Z,77.13
2023-05-25T13:25:22.436Z,78.22
2023-05-25T13:27:52.839Z,77.61
2023-05-25T13:30:23.516Z,72.74
2023-05-25T13:32:52.936Z,72.73
2023-05-25T13:35:34.232Z,74.57
2023-05-25T13:38:02.454Z,77.32
2023-05-25T13:40:30.542Z,79.72
2023-05-25T13:42:58.673Z,79.37
2023-05-25T13:45:28.306Z,76.08
2023-05-25T13:47:56.525Z,75.92
2023-05-25T13:50:24.817Z,73.22
2023-05-25T13:52:53.062Z,78.87
2023-05-25T13:55:21.138Z,76.03
2023-05-25T13:57:49.380Z,74.27
2023-05-25T14:00:18.127Z,78.53
2023-05-25T14:02:47.752Z,75.60
2023-05-25T14:05:15.880Z,74.38
2023-05-25T14:07:44.600Z,73.38
2023-05-25T14:10:12.801Z,72.90
2023-05-25T14:12:41.739Z,72.26
2023-05-25T14:15:10.843Z,73.13
2023-05-25T14:17:39.106Z,73.64
2023-05-25T14:20:09.896Z,72.04
2023-05-25T14:22:38.116Z,74.21
2023-05-25T14:25:07.142Z,77.08
2023-05-25T14:27:35.227Z,73.06
2023-05-25T14:30:03.310Z,76.28
2023-05-25T14:32:31.527Z,75.51
2023-05-25T14:34:59.832Z,74.23
2023-05-25T14:37:29.286Z,74.18
2023-05-25T14:39:57.655Z,75.29
2023-05-25T14:42:25.813Z,76.60
2023-05-25T14:44:53.994Z,76.14
2023-05-25T14:47:22.065Z,74.24
2023-05-25T14:49:50.227Z,71.68
2023-05-25T14:52:18.413Z,74.58
2023-05-25T14:54:47.898Z,75.28
2023-05-25T14:57:17.016Z,72.51
2023-05-25T14:59:45.167Z,76.89
2023-05-25T15:02:13.307Z,74.12
2023-05-25T15:04:41.500Z,72.71
2023-05-25T15:07:11.533Z,71.51
2023-05-25T15:09:41.010Z,73.41
2023-05-25T15:12:10.442Z,74.21
2023-05-25T15:14:40.883Z,72.27
2023-05-25T15:17:09.090Z,72.91
2023-05-25T15:19:37.276Z,73.39
2023-05-25T15:22:05.830Z,72.57
2023-05-25T15:24:35.448Z,72.05
2023-05-25T15:27:05.170Z,72.50
2023-05-25T15:29:34.696Z,70.67
2023-05-25T15:32:02.860Z,72.35
2023-05-25T15:34:31.332Z,73.37
2023-05-25T15:37:00.342Z,71.41
2023-05-25T15:39:28.534Z,70.81
2023-05-25T15:41:56.612Z,73.78
2023-05-25T15:44:24.766Z,76.57
2023-05-25T15:46:54.231Z,74.72
2023-05-25T15:49:22.277Z,71.28
2023-05-25T15:51:53.276Z,73.57
2023-05-25T15:54:21.466Z,73.61
2023-05-25T15:56:49.621Z,74.11
2023-05-25T15:59:17.709Z,74.06
2023-05-25T16:01:45.844Z,76.51
2023-05-25T16:04:15.522Z,76.86
2023-05-25T16:06:43.783Z,72.64
2023-05-25T16:09:12.453Z,71.78
2023-05-25T16:11:40.621Z,72.38
2023-05-25T16:14:08.753Z,70.35
2023-05-25T16:16:36.989Z,70.06
2023-05-25T16:19:05.136Z,70.70
2023-05-25T16:21:37.764Z,71.00
2023-05-25T16:24:06.572Z,71.32
2023-05-25T16:26:35.216Z,74.88
2023-05-25T16:29:03.361Z,73.42
2023-05-25T16:31:31.501Z,71.19
2023-05-25T16:33:59.688Z,70.59
2023-05-25T16:36:35.672Z,71.80
2023-05-25T16:39:06.270Z,70.99
2023-05-25T16:41:34.390Z,70.59
2023-05-25T16:44:02.576Z,70.66
2023-05-25T16:46:30.826Z,72.03
2023-05-25T16:48:58.909Z,71.94
2023-05-25T16:51:27.119Z,70.88
2023-05-25T16:53:56.208Z,70.85
2023-05-25T16:56:26.404Z,71.69
2023-05-25T16:58:54.509Z,71.06
2023-05-25T17:01:22.684Z,72.25
2023-05-25T17:03:50.870Z,71.72
2023-05-25T17:06:19.109Z,71.54
2023-05-25T17:08:47.151Z,73.16
2023-05-25T17:11:15.310Z,74.52
2023-05-25T17:13:44.744Z,75.28
2023-05-25T17:16:12.803Z,73.60
2023-05-25T17:18:41.765Z,73.86
2023-05-25T17:21:09.860Z,75.13
2023-05-25T17:23:37.941Z,75.76
2023-05-25T17:26:06.417Z,73.84
2023-05-25T17:28:34.536Z,73.41
2023-05-25T17:31:04.251Z,73.60
2023-05-25T17:33:37.159Z,74.72
2023-05-25T17:36:06.563Z,75.94
2023-05-25T17:38:42.532Z,76.14
2023-05-25T17:41:11.656Z,74.13
2023-05-25T17:43:39.720Z,74.75
2023-05-25T17:46:09.352Z,75.07
2023-05-25T17:48:38.042Z,75.67
2023-05-25T17:51:06.138Z,76.61
2023-05-25T17:53:34.216Z,74.67
2023-05-25T17:56:02.307Z,74.97
2023-05-25T17:58:30.729Z,76.11
2023-05-25T18:00:59.035Z,76.18
2023-05-25T18:03:28.707Z,77.50
2023-05-25T18:05:56.865Z,77.19
2023-05-25T18:08:25.083Z,76.68
2023-05-25T18:10:53.157Z,78.42
2023-05-25T18:13:21.204Z,76.76
2023-05-25T18:15:49.513Z,75.78
2023-05-25T18:18:20.738Z,76.08
2023-05-25T18:20:50.318Z,76.72
2023-05-25T18:23:18.501Z,78.07
2023-05-25T18:25:46.797Z,76.45
2023-05-25T18:28:15.282Z,78.18
2023-05-25T18:30:43.689Z,77.05
2023-05-25T18:33:11.896Z,77.78
2023-05-25T18:35:39.970Z,79.59
2023-05-25T18:38:09.463Z,78.34
2023-05-25T18:40:37.523Z,78.36
2023-05-25T18:43:12.201Z,77.13
2023-05-25T18:45:40.700Z,79.03
2023-05-25T18:48:09.126Z,79.17
2023-05-25T18:50:37.733Z,79.02
2023-05-25T18:53:07.807Z,80.25
2023-05-25T18:55:37.416Z,81.80
2023-05-25T18:58:05.740Z,79.40
2023-05-25T19:00:34.330Z,80.31
2023-05-25T19:03:02.568Z,80.72
2023-05-25T19:05:30.717Z,79.58
2023-05-25T19:08:00.005Z,79.28
2023-05-25T19:10:28.834Z,80.29
2023-05-25T19:12:58.548Z,80.38
2023-05-25T19:15:26.961Z,79.61
2023-05-25T19:17:55.146Z,81.86
2023-05-25T19:20:23.318Z,85.64
2023-05-25T19:22:51.591Z,84.84
2023-05-25T19:25:19.870Z,83.47
2023-05-25T19:27:48.037Z,82.01
2023-05-25T19:30:17.766Z,80.89
2023-05-25T19:32:46.035Z,83.94
2023-05-25T19:35:14.939Z,82.42
2023-05-25T19:37:43.090Z,83.11
2023-05-25T19:40:13.325Z,82.87
2023-05-25T19:42:41.790Z,83.69
2023-05-25T19:45:10.372Z,83.83
2023-05-25T19:47:39.875Z,83.98
2023-05-25T19:50:09.932Z,85.26
2023-05-25T19:52:38.070Z,85.10
2023-05-25T19:55:06.848Z,84.71
2023-05-25T19:57:34.964Z,85.42
2023-05-25T20:00:03.783Z,84.40
2023-05-25T20:02:41.180Z,86.45
2023-05-25T20:05:10.262Z,85.26
2023-05-25T20:07:38.604Z,83.94
2023-05-25T20:10:07.547Z,85.64
2023-05-25T20:12:35.659Z,85.39
2023-05-25T20:15:03.787Z,85.46
2023-05-25T20:17:31.851Z,85.77
2023-05-25T20:20:01.748Z,85.74
2023-05-25T20:22:29.935Z,86.91
2023-05-25T20:24:59.799Z,84.52
2023-05-25T20:27:27.945Z,85.67
2023-05-25T20:29:56.201Z,84.49
2023-05-25T20:32:24.413Z,89.05
2023-05-25T20:34:52.552Z,87.27
2023-05-25T20:37:22.050Z,87.80
2023-05-25T20:39:50.172Z,86.46
2023-05-25T20:42:18.236Z,86.40
2023-05-25T20:44:46.306Z,87.23
2023-05-25T20:47:14.408Z,88.35
2023-05-25T20:49:42.655Z,87.94
2023-05-25T20:52:10.728Z,88.26
2023-05-25T20:54:44.608Z,87.86
2023-05-25T20:57:13.066Z,88.53
2023-05-25T20:59:41.334Z,89.65
2023-05-25T21:02:09.688Z,86.52
2023-05-25T21:04:37.711Z,86.62
2023-05-25T21:07:06.013Z,85.93
2023-05-25T21:09:34.114Z,86.86
2023-05-25T21:12:03.514Z,87.60
2023-05-25T21:14:31.557Z,87.53
2023-05-25T21:16:59.570Z,86.76
2023-05-25T21:19:27.693Z,86.88
2023-05-25T21:21:55.812Z,88.08
2023-05-25T21:24:23.992Z,89.35
2023-05-25T21:26:52.005Z,88.60
2023-05-25T21:29:21.632Z,88.81
2023-05-25T21:31:49.819Z,89.81
2023-05-25T21:34:17.880Z,86.29
2023-05-25T21:36:45.899Z,85.88
2023-05-25T21:39:14.033Z,85.13
2023-05-25T21:41:42.357Z,87.22
2023-05-25T21:44:10.438Z,86.01
2023-05-25T21:46:40.269Z,87.62
2023-05-25T21:49:08.343Z,88.95
2023-05-25T21:51:36.608Z,89.60
2023-05-25T21:54:04.923Z,89.47
2023-05-25T21:56:33.024Z,90.12
2023-05-25T21:59:01.197Z,88.88
2023-05-25T22:01:29.280Z,85.89
2023-05-25T22:03:58.743Z,86.03
2023-05-25T22:06:26.836Z,83.34
2023-05-25T22:08:54.917Z,89.60
2023-05-25T22:11:23.038Z,87.98
2023-05-25T22:13:51.122Z,90.04
2023-05-25T22:16:19.285Z,90.31
2023-05-25T22:18:47.424Z,90.49
2023-05-25T22:21:17.037Z,92.32
2023-05-25T22:23:45.113Z,91.29
2023-05-25T22:26:13.162Z,92.61
2023-05-25T22:28:41.186Z,90.90
2023-05-25T22:31:10.461Z,91.82
2023-05-25T22:33:38.465Z,89.06
2023-05-25T22:36:07.064Z,91.07
2023-05-25T22:38:36.716Z,89.94
2023-05-25T22:41:04.760Z,88.60
2023-05-25T22:43:32.816Z,87.85
2023-05-25T22:46:00.956Z,87.56
2023-05-25T22:48:29.134Z,87.07
2023-05-25T22:50:57.686Z,87.40
2023-05-25T22:53:25.761Z,89.83
2023-05-25T22:55:55.198Z,91.54
2023-05-25T22:58:23.283Z,91.71
2023-05-25T23:00:51.378Z,90.92
2023-05-25T23:03:19.498Z,92.87
2023-05-25T23:05:47.882Z,92.76
2023-05-25T23:08:16.068Z,93.48
2023-05-25T23:10:44.111Z,89.45
2023-05-25T23:13:14.919Z,89.92
2023-05-25T23:15:44.396Z,90.67
2023-05-25T23:18:12.635Z,90.21
2023-05-25T23:20:41.065Z,91.02
2023-05-25T23:23:09.167Z,89.88
2023-05-25T23:25:37.761Z,89.04
2023-05-25T23:28:06.274Z,87.39
2023-05-25T23:30:35.705Z,88.37
2023-05-25T23:33:03.790Z,87.43
2023-05-25T23:35:31.842Z,89.10
2023-05-25T23:38:01.851Z,90.01
2023-05-25T23:40:30.210Z,89.19
2023-05-25T23:43:05.027Z,91.15
2023-05-25T23:45:33.363Z,91.85
2023-05-25T23:48:02.859Z,93.68
2023-05-25T23:50:31.069Z,93.45
2023-05-25T23:52:59.100Z,93.32
2023-05-25T23:55:27.162Z,94.00
2023-05-25T23:57:55.192Z,91.66
